Time;durP1;ratioP1;P1;durP2;ratioP2;P2;SDS_P1;SDS_P2;PMS_P1;PMS_P2;Temp;Humidity;BMP_temperature;BMP_pressure;BME280_temperature;BME280_humidity;BME280_pressure;Samples;Min_cycle;Max_cycle;Signal;HPM_P1;HPM_P2
2021/11/20 08:47:34;;;;;;;40.65;26.48;;;281.60;2278.40;;;;;;4906096;29;20048;-83
2021/11/20 08:50:01;;;;;;;26.80;16.83;;;256.80;2252.80;;;;;;4887208;29;20386;-80
2021/11/20 08:55:33;;;;;;;35.57;22.33;;;281.80;2278.40;;;;;;4903396;29;20100;-82
2021/11/20 08:58:00;;;;;;;27.95;19.08;;;282.00;2278.40;;;;;;4898272;29;20493;-83
2021/11/20 09:00:32;;;;;;;22.42;13.95;;;282.20;2278.40;;;;;;4898938;29;20446;-82
2021/11/20 09:03:21;;;;;;;18.40;11.52;;;307.60;2252.80;;;;;;4882428;29;20402;-83
2021/11/20 09:06:04;;;;;;;16.13;11.60;;;308.10;2176.00;;;;;;4866016;29;20467;-84
2021/11/20 09:08:54;;;;;;;19.25;13.52;;;384.00;1945.60;;;;;;4897537;29;20572;-81
2021/11/20 09:11:40;;;;;;;19.88;13.85;;;409.70;1715.20;;;;;;4881941;29;20380;-82
2021/11/20 09:14:25;;;;;;;26.38;13.45;;;410.40;1664.00;;;;;;4885871;29;20422;-82
2021/11/20 09:16:52;;;;;;;16.02;11.50;;;435.80;1536.00;;;;;;4885632;29;20367;-82
2021/11/20 09:19:21;;;;;;;89.78;42.10;;;436.00;1484.80;;;;;;4885692;29;20466;-83
2021/11/20 09:21:47;;;;;;;47.05;28.13;;;435.90;1510.40;;;;;;4885898;29;20402;-82
2021/11/20 09:24:13;;;;;;;20.38;10.10;;;435.40;1561.60;;;;;;4885534;29;20410;-82
2021/11/20 09:26:41;;;;;;;15.27;10.15;;;435.90;1510.40;;;;;;4885371;29;20051;-82
2021/11/20 09:29:10;;;;;;;12.90;9.90;;;461.60;1433.60;;;;;;4885376;29;20381;-81
2021/11/20 09:31:40;;;;;;;14.65;8.70;;;;;;;;;;4902194;29;20373;-81
2021/11/20 09:34:07;;;;;;;14.80;9.10;;;512.30;1254.40;;;;;;4885175;29;20425;-80
2021/11/20 09:36:34;;;;;;;14.43;10.27;;;538.00;1228.80;;;;;;4902146;29;20462;-79
2021/11/20 09:39:04;;;;;;;17.33;12.50;;;538.30;1177.60;;;;;;4885272;29;20084;-79
2021/11/20 09:41:57;;;;;;;16.95;11.93;;;512.50;1228.80;;;;;;4900427;29;20401;-81
2021/11/20 09:44:25;;;;;;;15.00;11.77;;;461.70;1356.80;;;;;;4885122;29;20040;-79
2021/11/20 09:46:56;;;;;;;14.27;10.73;;;486.50;1382.40;;;;;;4901694;29;20475;-79
2021/11/20 09:49:27;;;;;;;21.08;13.98;;;;;;;;;;4901698;29;20422;-78
2021/11/20 09:55:21;;;;;;;17.30;12.30;;;;;;;;;;4901711;29;20035;-79
2021/11/20 09:57:50;;;;;;;19.67;11.55;;;;;;;;;;4901784;29;20340;-80
2021/11/20 10:00:51;;;;;;;11.52;10.32;;;717.00;819.20;;;;;;4884575;29;20482;-79
2021/11/20 10:03:44;;;;;;;23.77;11.07;;;691.90;819.20;;;;;;4884476;29;20367;-78
2021/11/20 10:06:33;;;;;;;16.70;10.38;;;;;;;;;;4884644;29;20422;-79
2021/11/20 10:09:22;;;;;;;21.63;13.50;;;743.20;793.60;;;;;;4890347;29;20402;-78
2021/11/20 10:12:03;;;;;;;11.98;9.98;;;666.10;870.40;;;;;;4884303;29;20386;-79
2021/11/20 10:14:46;;;;;;;12.25;9.82;;;589.40;998.40;;;;;;4901036;29;20458;-79
2021/11/20 10:17:26;;;;;;;16.10;11.88;;;563.80;1075.20;;;;;;4901353;29;20410;-79
2021/11/20 10:20:35;;;;;;;13.27;10.50;;;538.10;1152.00;;;;;;4899902;29;20466;-79
2021/11/20 10:23:04;;;;;;;14.95;9.82;;;512.00;1228.80;;;;;;4891756;29;20435;-79
2021/11/20 10:25:54;;;;;;;10.13;8.50;;;487.00;1254.40;;;;;;4900569;29;20414;-78
2021/11/20 10:28:30;;;;;;;11.10;8.95;;;487.20;1254.40;;;;;;4884092;29;20390;-79
2021/11/20 10:31:00;;;;;;;10.55;7.53;;;460.90;1408.00;;;;;;4884411;29;20461;-79
2021/11/20 10:33:39;;;;;;;11.35;9.20;;;512.30;1203.20;;;;;;4884266;29;20513;-77
2021/11/20 10:36:33;;;;;;;10.95;8.43;;;487.10;1280.00;;;;;;4901163;29;20362;-77
2021/11/20 10:39:30;;;;;;;9.15;7.50;;;487.10;1254.40;;;;;;4884214;29;20523;-78
2021/11/20 10:42:04;;;;;;;9.18;7.57;;;486.60;1305.60;;;;;;4883706;29;20411;-77
2021/11/20 10:44:39;;;;;;;16.77;11.15;;;512.30;1228.80;;;;;;4883839;29;20397;-79
2021/11/20 10:47:12;;;;;;;17.20;15.02;;;460.90;1382.40;;;;;;4884645;29;20359;-79
2021/11/20 10:50:02;;;;;;;29.50;26.67;;;435.20;1433.60;;;;;;4883644;29;20394;-79
2021/11/20 10:52:50;;;;;;;17.88;14.40;;;409.90;1510.40;;;;;;4900953;29;20448;-79
2021/11/20 10:55:35;;;;;;;13.57;12.00;;;384.30;1561.60;;;;;;4883883;29;20429;-87
2021/11/20 10:58:29;;;;;;;16.58;10.95;;;384.00;1638.40;;;;;;4883789;29;20422;-80
2021/11/20 11:01:17;;;;;;;15.35;11.05;;;359.20;1664.00;;;;;;4883707;29;20390;-81
2021/11/20 11:04:26;;;;;;;10.85;9.75;;;359.00;1715.20;;;;;;4900739;29;20029;-80
2021/11/20 11:07:27;;;;;;;13.48;9.63;;;358.90;1740.80;;;;;;4868035;29;20377;-80
2021/11/20 11:10:02;;;;;;;14.65;9.10;;;358.80;1740.80;;;;;;4824335;29;20404;-80
2021/11/20 11:12:34;;;;;;;13.77;10.27;;;358.80;1766.40;;;;;;4824745;29;20649;-81
2021/11/20 11:15:15;;;;;;;12.18;9.00;;;358.70;1766.40;;;;;;4809324;29;20388;-82
2021/11/20 11:17:59;;;;;;;9.00;7.38;;;358.70;1792.00;;;;;;4824404;29;20415;-81
2021/11/20 11:20:53;;;;;;;11.10;8.30;;;358.60;1817.60;;;;;;4809265;29;20488;-83
2021/11/20 11:23:25;;;;;;;12.20;7.85;;;358.40;1817.60;;;;;;4824389;29;20384;-83
2021/11/20 11:25:59;;;;;;;15.77;10.43;;;333.60;1868.80;;;;;;4809077;29;20170;-83
2021/11/20 11:28:53;;;;;;;13.35;9.00;;;333.60;1868.80;;;;;;4824590;29;20491;-88
2021/11/20 11:31:35;;;;;;;22.15;12.38;;;333.70;1868.80;;;;;;4810519;29;20455;-89
2021/11/20 11:34:03;;;;;;;37.40;20.33;;;358.40;1868.80;;;;;;4809731;29;20627;-87
2021/11/20 11:36:47;;;;;;;50.40;27.50;;;358.50;1868.80;;;;;;4809896;29;20326;-88
2021/11/20 11:39:25;;;;;;;65.72;33.83;;;358.40;1843.20;;;;;;4809577;29;20441;-88
2021/11/20 11:42:01;;;;;;;25.52;15.70;;;333.70;1843.20;;;;;;4809409;29;20426;-88
2021/11/20 11:44:49;;;;;;;22.70;14.73;;;333.70;1843.20;;;;;;4815357;29;20505;-86
2021/11/20 11:47:29;;;;;;;22.20;15.52;;;333.70;1868.80;;;;;;4883448;29;20386;-88
2021/11/20 11:50:06;;;;;;;28.80;13.93;;;358.40;1843.20;;;;;;4883174;29;20400;-87
2021/11/20 11:52:41;;;;;;;26.05;15.13;;;358.40;1843.20;;;;;;4883451;29;20381;-86
2021/11/20 11:55:29;;;;;;;24.02;14.20;;;333.70;1868.80;;;;;;4883577;29;20374;-90
2021/11/20 11:58:18;;;;;;;37.50;20.05;;;333.70;1843.20;;;;;;4900155;29;20471;-88
2021/11/20 12:01:00;;;;;;;41.10;20.35;;;358.40;1843.20;;;;;;4899013;29;20529;-87
2021/11/20 12:03:29;;;;;;;31.25;17.80;;;358.60;1817.60;;;;;;4883650;29;20378;-87
2021/11/20 12:06:16;;;;;;;53.97;25.63;;;358.60;1817.60;;;;;;4883246;29;20378;-90
2021/11/20 12:08:50;;;;;;;33.13;22.02;;;359.00;1766.40;;;;;;4882995;29;20383;-85
2021/11/20 12:11:28;;;;;;;17.88;11.65;;;359.00;1766.40;;;;;;4883016;29;20366;-86
2021/11/20 12:14:13;;;;;;;25.60;14.13;;;358.90;1766.40;;;;;;4883030;29;20374;-91
2021/11/20 12:16:56;;;;;;;24.80;14.93;;;358.90;1792.00;;;;;;4883200;29;20359;-89
2021/11/20 12:19:51;;;;;;;18.60;14.00;;;359.00;1792.00;;;;;;4882765;29;20513;-86
2021/11/20 12:22:30;;;;;;;21.50;12.23;;;384.00;1715.20;;;;;;4882785;29;20390;-89
2021/11/20 12:25:05;;;;;;;19.00;11.88;;;384.00;1715.20;;;;;;4882673;29;20427;-91
2021/11/20 12:27:47;;;;;;;21.40;13.10;;;384.10;1689.60;;;;;;4882661;29;20123;-88
2021/11/20 12:30:50;;;;;;;16.00;9.75;;;359.10;1740.80;;;;;;4883779;29;20371;-89
2021/11/20 12:33:47;;;;;;;21.40;13.25;;;359.00;1766.40;;;;;;4883502;29;20510;-87
2021/11/20 12:36:26;;;;;;;16.67;11.23;;;359.10;1766.40;;;;;;4883438;29;20474;-85
2021/11/20 12:38:58;;;;;;;12.93;9.07;;;359.10;1792.00;;;;;;4882651;29;20374;-91
2021/11/20 12:41:55;;;;;;;22.58;13.80;;;358.90;1792.00;;;;;;4883004;29;20374;-84
2021/11/20 12:44:32;;;;;;;16.13;9.52;;;358.60;1843.20;;;;;;4882125;29;20553;-81
2021/11/20 12:47:16;;;;;;;13.18;9.45;;;358.40;1868.80;;;;;;4881506;29;20386;-84
2021/11/20 12:50:07;;;;;;;25.60;16.38;;;358.50;1868.80;;;;;;4882114;29;20359;-81
2021/11/20 12:53:15;;;;;;;14.13;10.23;;;358.40;1894.40;;;;;;4899037;29;20434;-85
2021/11/20 12:55:44;;;;;;;16.13;10.20;;;358.40;1894.40;;;;;;4885104;29;20393;-78
2021/11/20 12:58:18;;;;;;;23.80;16.25;;;333.70;1894.40;;;;;;4881678;29;20411;-77
2021/11/20 13:00:52;;;;;;;168.25;78.32;;;333.70;1894.40;;;;;;4898375;29;20397;-77
2021/11/20 13:03:37;;;;;;;43.05;18.20;;;333.60;1894.40;;;;;;4881668;29;20509;-77
2021/11/20 13:06:09;;;;;;;93.03;44.50;;;333.50;1894.40;;;;;;4897242;29;20458;-78
2021/11/20 13:08:39;;;;;;;61.85;31.65;;;333.60;1920.00;;;;;;4898401;29;20458;-77
2021/11/20 13:11:20;;;;;;;60.83;28.30;;;333.50;1920.00;;;;;;4881393;29;20374;-77
2021/11/20 13:14:14;;;;;;;99.47;44.22;;;333.60;1920.00;;;;;;4898335;29;20343;-78
2021/11/20 13:17:04;;;;;;;105.57;50.00;;;333.40;1945.60;;;;;;4898176;29;20386;-78
2021/11/20 13:19:53;;;;;;;71.28;28.67;;;333.40;1945.60;;;;;;4881241;29;20474;-78
2021/11/20 13:22:21;;;;;;;113.47;32.47;;;333.40;1945.60;;;;;;4881561;29;20029;-78
2021/11/20 13:24:53;;;;;;;424.88;101.68;;;333.30;1945.60;;;;;;4881210;29;20348;-78
2021/11/20 13:27:41;;;;;;;794.28;257.13;;;333.40;1945.60;;;;;;4898314;29;20411;-78
2021/11/20 13:30:14;;;;;;;70.20;29.20;;;333.40;1945.60;;;;;;4888803;29;20367;-78
2021/11/20 13:32:44;;;;;;;400.25;159.77;;;333.30;1971.20;;;;;;4881221;29;20355;-78
2021/11/20 13:35:11;;;;;;;27.63;15.63;;;333.30;1971.20;;;;;;4897652;29;20029;-79
2021/11/20 13:37:37;;;;;;;21.30;13.50;;;333.20;1971.20;;;;;;4897686;29;20445;-78
2021/11/20 13:40:05;;;;;;;72.55;38.38;;;333.20;1971.20;;;;;;4897911;29;20101;-78
2021/11/20 13:42:36;;;;;;;26.63;15.05;;;333.20;1996.80;;;;;;4881046;29;20431;-79
2021/11/20 13:45:06;;;;;;;64.60;45.80;;;333.20;1996.80;;;;;;4898038;29;20407;-78
2021/11/20 13:47:33;;;;;;;116.00;60.67;;;333.30;1971.20;;;;;;4881011;29;20496;-78
2021/11/20 13:49:59;;;;;;;27.30;13.18;;;333.30;1971.20;;;;;;4881145;29;20445;-78
2021/11/20 13:52:28;;;;;;;337.33;178.60;;;333.20;1996.80;;;;;;4881124;29;20348;-78
2021/11/20 13:54:59;;;;;;;58.67;34.67;;;333.30;1996.80;;;;;;4880991;29;20398;-78
2021/11/20 13:57:35;;;;;;;113.95;68.63;;;333.30;1996.80;;;;;;4881683;29;20399;-78
2021/11/20 14:00:14;;;;;;;145.40;105.32;;;333.20;1996.80;;;;;;4885045;29;20032;-79
2021/11/20 14:02:53;;;;;;;71.13;41.67;;;333.20;2022.40;;;;;;4901613;29;20343;-79
2021/11/20 14:05:22;;;;;;;148.80;97.60;;;333.20;2022.40;;;;;;4901220;29;20381;-78
2021/11/20 14:07:57;;;;;;;56.47;28.23;;;333.20;2022.40;;;;;;4901212;29;20024;-77
2021/11/20 14:10:59;;;;;;;46.40;25.02;;;333.00;2048.00;;;;;;4901509;29;20437;-78
2021/11/20 14:13:18;;;;;;;45.53;30.70;;;333.00;2048.00;;;;;;4898132;29;20111;-77
2021/11/20 14:15:53;;;;;;;43.00;25.75;;;333.10;2048.00;;;;;;4884310;29;20474;-77
2021/11/20 14:18:22;;;;;;;56.97;46.40;;;333.00;2048.00;;;;;;4884197;29;20431;-78
2021/11/20 14:20:52;;;;;;;37.83;19.35;;;333.10;2048.00;;;;;;4899803;29;20425;-77
2021/11/20 14:23:21;;;;;;;37.47;18.33;;;333.10;2048.00;;;;;;4884425;29;20446;-78
2021/11/20 14:25:50;;;;;;;32.00;17.55;;;333.10;2048.00;;;;;;4900902;29;20411;-77
2021/11/20 14:28:17;;;;;;;52.28;30.35;;;333.10;2048.00;;;;;;4883919;29;20414;-77
2021/11/20 14:30:49;;;;;;;199.93;147.00;;;333.10;2048.00;;;;;;4901000;29;20390;-83
2021/11/20 14:33:28;;;;;;;47.00;22.85;;;333.10;2073.60;;;;;;4899767;29;20467;-77
2021/11/20 14:36:01;;;;;;;44.78;22.02;;;333.00;2073.60;;;;;;4883957;29;20414;-78
2021/11/20 14:38:29;;;;;;;34.08;19.17;;;333.00;2073.60;;;;;;4900920;29;20474;-77
2021/11/20 14:40:58;;;;;;;46.97;22.02;;;333.00;2073.60;;;;;;4900653;29;20471;-77
2021/11/20 14:43:30;;;;;;;45.63;22.38;;;333.00;2099.20;;;;;;4883568;29;20375;-77
2021/11/20 14:45:58;;;;;;;37.47;20.92;;;332.90;2099.20;;;;;;4883679;29;20365;-88
2021/11/20 14:48:31;;;;;;;52.33;31.88;;;332.90;2099.20;;;;;;4900779;29;20483;-77
2021/11/20 14:51:01;;;;;;;32.03;16.42;;;332.90;2099.20;;;;;;4883787;29;20418;-77
2021/11/20 14:53:33;;;;;;;26.20;14.50;;;332.80;2099.20;;;;;;4883846;29;20470;-77
2021/11/20 14:56:13;;;;;;;36.03;17.67;;;332.80;2124.80;;;;;;4900862;29;20467;-82
2021/11/20 14:58:40;;;;;;;24.77;14.82;;;332.80;2124.80;;;;;;4900674;29;20462;-78
2021/11/20 15:01:07;;;;;;;47.00;24.05;;;332.80;2124.80;;;;;;4883727;29;20362;-83
2021/11/20 15:03:38;;;;;;;46.80;27.55;;;332.80;2124.80;;;;;;4883728;29;20374;-77
2021/11/20 15:06:06;;;;;;;43.53;27.75;;;332.80;2124.80;;;;;;4900600;29;20374;-83
2021/11/20 15:08:33;;;;;;;61.65;36.08;;;332.80;2124.80;;;;;;4900621;29;20411;-85
2021/11/20 15:11:00;;;;;;;56.17;22.83;;;332.80;2150.40;;;;;;4882970;29;20464;-88
2021/11/20 15:13:26;;;;;;;33.67;19.00;;;308.10;2150.40;;;;;;4900398;29;20439;-86
2021/11/20 15:15:53;;;;;;;53.35;32.72;;;308.10;2124.80;;;;;;4900490;29;20357;-78
2021/11/20 15:18:19;;;;;;;35.47;19.98;;;308.10;2124.80;;;;;;4883276;29;20351;-78
2021/11/20 15:20:46;;;;;;;39.83;24.70;;;308.10;2124.80;;;;;;4900195;29;20407;-85
2021/11/20 15:23:13;;;;;;;40.67;21.00;;;332.80;2150.40;;;;;;4900241;29;20021;-85
2021/11/20 15:25:39;;;;;;;33.15;19.55;;;308.10;2124.80;;;;;;4900208;29;20460;-84
2021/11/20 15:28:06;;;;;;;31.73;18.40;;;308.10;2150.40;;;;;;4883377;29;20416;-88
2021/11/20 15:30:33;;;;;;;45.13;20.17;;;308.00;2150.40;;;;;;4900398;29;20366;-76
2021/11/20 15:33:01;;;;;;;41.15;23.35;;;307.90;2150.40;;;;;;4883362;29;20411;-83
2021/11/20 15:35:29;;;;;;;62.40;32.63;;;307.90;2176.00;;;;;;4883098;29;20381;-76
2021/11/20 15:37:56;;;;;;;73.55;43.25;;;307.90;2176.00;;;;;;4899760;29;20470;-76
2021/11/20 15:40:22;;;;;;;206.13;106.68;;;307.90;2176.00;;;;;;4883118;29;20386;-77
2021/11/20 15:42:49;;;;;;;73.05;43.22;;;308.00;2176.00;;;;;;4882748;29;20538;-77
2021/11/20 15:45:15;;;;;;;70.07;39.08;;;308.00;2176.00;;;;;;4883242;29;20084;-85
2021/11/20 15:47:42;;;;;;;86.95;54.97;;;308.00;2176.00;;;;;;4899948;29;20513;-77
2021/11/20 15:50:12;;;;;;;83.85;50.75;;;308.00;2176.00;;;;;;4882661;29;20542;-77
2021/11/20 15:52:38;;;;;;;95.00;54.20;;;308.00;2176.00;;;;;;4899570;29;20463;-77
2021/11/20 15:55:06;;;;;;;82.28;49.28;;;308.00;2176.00;;;;;;4882944;29;20374;-86
2021/11/20 15:57:35;;;;;;;96.70;50.58;;;308.10;2176.00;;;;;;4882726;29;20415;-77
2021/11/20 16:00:06;;;;;;;110.80;63.08;;;308.00;2176.00;;;;;;4882340;29;20502;-87
2021/11/20 16:02:32;;;;;;;131.55;71.93;;;308.00;2201.60;;;;;;4882737;29;20080;-86
2021/11/20 16:04:58;;;;;;;129.93;72.30;;;307.90;2201.60;;;;;;4882790;29;20366;-77
2021/11/20 16:07:24;;;;;;;155.98;86.43;;;307.80;2201.60;;;;;;4899296;29;20348;-78
2021/11/20 16:09:50;;;;;;;200.18;109.10;;;307.90;2201.60;;;;;;4882254;29;20107;-77
2021/11/20 16:12:16;;;;;;;210.23;91.18;;;307.90;2201.60;;;;;;4899277;29;20024;-77
2021/11/20 16:14:41;;;;;;;131.20;64.68;;;307.80;2227.20;;;;;;4898911;29;20113;-78
2021/11/20 16:17:07;;;;;;;116.40;61.13;;;307.80;2227.20;;;;;;4882154;29;20029;-77
2021/11/20 16:19:34;;;;;;;119.70;67.82;;;307.80;2227.20;;;;;;4898967;29;20032;-77
2021/11/20 16:22:01;;;;;;;96.80;54.72;;;307.70;2227.20;;;;;;4898079;29;20529;-75
2021/11/20 16:24:27;;;;;;;75.95;45.75;;;307.70;2227.20;;;;;;4882036;29;20390;-77
2021/11/20 16:26:53;;;;;;;71.95;42.75;;;307.70;2227.20;;;;;;4881946;29;20414;-77
2021/11/20 16:29:20;;;;;;;99.03;59.30;;;307.70;2227.20;;;;;;4882112;29;20507;-76
2021/11/20 16:31:47;;;;;;;115.80;67.60;;;307.70;2227.20;;;;;;4881926;29;20374;-90
2021/11/20 16:34:13;;;;;;;136.65;80.07;;;307.70;2227.20;;;;;;4899076;29;20369;-77
2021/11/20 16:36:41;;;;;;;145.13;82.68;;;307.60;2227.20;;;;;;4881903;29;20399;-77
2021/11/20 16:39:16;;;;;;;116.07;68.07;;;307.70;2227.20;;;;;;4881862;29;20035;-77
2021/11/20 16:41:45;;;;;;;84.40;47.83;;;307.70;2201.60;;;;;;4882035;29;20526;-77
2021/11/20 16:44:15;;;;;;;76.78;43.83;;;307.60;2227.20;;;;;;4881770;29;20442;-78
2021/11/20 16:46:45;;;;;;;63.00;35.67;;;307.50;2227.20;;;;;;4881746;29;20438;-77
2021/11/20 16:49:11;;;;;;;49.75;28.67;;;307.60;2227.20;;;;;;4898517;29;20393;-77
2021/11/20 16:54:35;;;;;;;43.08;27.85;;;307.60;2201.60;;;;;;4898654;29;20490;-77
2021/11/20 16:57:02;;;;;;;46.92;27.52;;;307.60;2201.60;;;;;;4881655;29;20458;-77
2021/11/20 16:59:28;;;;;;;49.22;30.10;;;307.70;2176.00;;;;;;4881370;29;20609;-77
2021/11/20 17:01:54;;;;;;;70.00;42.00;;;307.70;2176.00;;;;;;4898739;29;20024;-76
2021/11/20 17:04:24;;;;;;;61.50;38.00;;;307.70;2201.60;;;;;;4897226;29;20478;-76
2021/11/20 17:06:52;;;;;;;51.90;31.85;;;307.70;2201.60;;;;;;4881614;29;20496;-77
2021/11/20 17:09:21;;;;;;;42.55;27.83;;;307.70;2201.60;;;;;;4898254;29;20371;-78
2021/11/20 17:11:49;;;;;;;42.20;27.85;;;307.70;2201.60;;;;;;4881455;29;20347;-77
2021/11/20 17:14:20;;;;;;;63.13;41.55;;;307.60;2201.60;;;;;;4897017;29;20478;-79
2021/11/20 17:16:47;;;;;;;59.08;38.25;;;307.50;2201.60;;;;;;4881601;29;20458;-77
2021/11/20 17:19:13;;;;;;;87.28;53.05;;;307.50;2227.20;;;;;;4898475;29;20454;-77
2021/11/20 17:21:39;;;;;;;117.75;62.55;;;307.40;2201.60;;;;;;4881115;29;20572;-77
2021/11/20 17:24:08;;;;;;;151.98;77.10;;;307.40;2201.60;;;;;;4898508;29;20467;-77
2021/11/20 17:26:35;;;;;;;411.65;167.57;;;307.40;2227.20;;;;;;4881363;29;20541;-76
2021/11/20 17:29:03;;;;;;;302.30;145.02;;;307.40;2227.20;;;;;;4898006;29;20489;-77
2021/11/20 17:31:29;;;;;;;309.00;138.95;;;307.30;2227.20;;;;;;4881362;29;20477;-77
2021/11/20 17:33:56;;;;;;;259.90;117.10;;;307.30;2227.20;;;;;;4883456;29;20512;-78
2021/11/20 17:36:22;;;;;;;186.38;90.60;;;307.30;2252.80;;;;;;4884895;29;20397;-77
2021/11/20 17:38:48;;;;;;;101.70;58.00;;;307.20;2278.40;;;;;;4884934;29;20556;-77
2021/11/20 17:41:15;;;;;;;111.18;64.57;;;282.50;2252.80;;;;;;4884973;29;20455;-77
2021/11/20 17:43:42;;;;;;;99.82;58.83;;;282.40;2252.80;;;;;;4884839;29;20409;-77
2021/11/20 17:46:10;;;;;;;63.97;37.03;;;282.40;2252.80;;;;;;4884827;29;20076;-77
2021/11/20 17:48:37;;;;;;;59.08;38.13;;;282.40;2252.80;;;;;;4884754;29;20036;-77
2021/11/20 17:51:04;;;;;;;121.28;57.97;;;282.30;2227.20;;;;;;4884825;29;20025;-77
2021/11/20 17:53:31;;;;;;;178.93;84.70;;;282.30;2252.80;;;;;;4884745;29;20429;-77
2021/11/20 17:55:57;;;;;;;140.10;70.88;;;282.30;2252.80;;;;;;4884589;29;20366;-78
2021/11/20 17:58:23;;;;;;;187.93;106.90;;;282.20;2252.80;;;;;;4884484;29;20377;-77
2021/11/20 18:00:51;;;;;;;220.20;124.22;;;282.10;2278.40;;;;;;4884542;29;20534;-77
2021/11/20 18:03:20;;;;;;;160.07;89.95;;;282.10;2278.40;;;;;;4884454;29;20373;-77
2021/11/20 18:05:46;;;;;;;173.77;99.35;;;282.00;2278.40;;;;;;4901511;29;20403;-77
2021/11/20 18:08:13;;;;;;;163.02;85.65;;;282.00;2278.40;;;;;;4901194;29;20370;-77
2021/11/20 18:10:40;;;;;;;162.05;82.43;;;281.80;2278.40;;;;;;4901241;29;20358;-77
2021/11/20 18:13:08;;;;;;;142.10;71.43;;;281.80;2278.40;;;;;;4901222;29;20080;-77
2021/11/20 18:15:35;;;;;;;129.00;68.65;;;281.70;2278.40;;;;;;4901173;29;20025;-77
2021/11/20 18:18:01;;;;;;;133.95;73.00;;;281.70;2278.40;;;;;;4884437;29;20366;-81
2021/11/20 18:20:28;;;;;;;105.30;59.90;;;256.90;2252.80;;;;;;4884382;29;20381;-81
2021/11/20 18:22:55;;;;;;;89.38;55.13;;;256.60;2252.80;;;;;;4884320;29;20429;-83
2021/11/20 18:25:22;;;;;;;102.65;60.47;;;256.00;2252.80;;;;;;4884692;29;20359;-82
2021/11/20 18:27:56;;;;;;;107.25;64.10;;;256.50;2252.80;;;;;;4884401;29;20401;-82
2021/11/20 18:30:24;;;;;;;101.03;62.70;;;256.50;2252.80;;;;;;4884453;29;20373;-80
2021/11/20 18:32:50;;;;;;;108.40;67.90;;;256.50;2252.80;;;;;;4885800;29;20458;-81
2021/11/20 18:35:16;;;;;;;105.68;65.10;;;256.50;2252.80;;;;;;4884407;29;20485;-82
2021/11/20 18:37:44;;;;;;;73.75;48.92;;;256.50;2252.80;;;;;;4884146;29;20351;-81
2021/11/20 18:40:12;;;;;;;87.25;56.35;;;256.50;2252.80;;;;;;4884093;29;20028;-81
2021/11/20 18:42:38;;;;;;;98.40;60.33;;;256.40;2252.80;;;;;;4884284;29;20051;-81
2021/11/20 18:45:05;;;;;;;91.30;59.40;;;256.40;2252.80;;;;;;4900128;29;20484;-81
2021/11/20 18:47:32;;;;;;;94.63;57.33;;;256.40;2252.80;;;;;;4884405;29;20401;-87
2021/11/20 18:49:58;;;;;;;93.38;56.90;;;256.40;2252.80;;;;;;4883964;29;20496;-81
2021/11/20 18:52:24;;;;;;;89.90;56.20;;;256.30;2252.80;;;;;;4884972;29;20431;-82
2021/11/20 18:54:50;;;;;;;89.10;54.47;;;256.30;2252.80;;;;;;4901277;29;20343;-81
2021/11/20 18:57:16;;;;;;;90.60;56.88;;;256.30;2252.80;;;;;;4900711;29;20072;-82
2021/11/20 18:59:43;;;;;;;91.95;55.30;;;256.20;2252.80;;;;;;4883830;29;20533;-81
2021/11/20 19:02:11;;;;;;;101.07;61.67;;;256.20;2252.80;;;;;;4883992;29;20461;-82
2021/11/20 19:04:38;;;;;;;156.02;99.65;;;256.20;2252.80;;;;;;4883644;29;20374;-82
2021/11/20 19:07:05;;;;;;;137.95;88.13;;;256.30;2252.80;;;;;;4884435;29;20459;-82
2021/11/20 19:09:32;;;;;;;110.03;67.13;;;256.30;2252.80;;;;;;4883592;29;20557;-82
2021/11/20 19:11:59;;;;;;;111.45;72.05;;;256.20;2252.80;;;;;;4883546;29;20028;-82
2021/11/20 19:14:27;;;;;;;134.70;88.57;;;256.20;2252.80;;;;;;4883629;29;20031;-82
2021/11/20 19:16:56;;;;;;;133.73;87.10;;;256.20;2252.80;;;;;;4900483;29;20025;-82
2021/11/20 19:19:23;;;;;;;177.32;110.60;;;256.20;2252.80;;;;;;4883192;29;20039;-81
2021/11/20 19:21:53;;;;;;;152.75;94.43;;;256.20;2252.80;;;;;;4883182;29;20080;-82
2021/11/20 19:24:26;;;;;;;142.13;89.07;;;256.20;2252.80;;;;;;4901030;29;20521;-83
2021/11/20 19:26:58;;;;;;;136.40;86.57;;;256.20;2252.80;;;;;;4861710;29;20429;-83
2021/11/20 19:29:26;;;;;;;146.27;91.40;;;256.10;2252.80;;;;;;4883527;29;20474;-84
2021/11/20 19:32:03;;;;;;;;;;;256.10;2252.80;;;;;;4906056;29;20351;-87
2021/11/20 19:34:32;;;;;;;132.98;77.85;;;256.00;2252.80;;;;;;4900535;29;20333;-87
2021/11/20 19:36:58;;;;;;;121.88;76.65;;;256.00;2252.80;;;;;;4884899;29;20389;-81
2021/11/20 19:39:25;;;;;;;140.50;83.45;;;256.00;2252.80;;;;;;4883223;29;20453;-81
2021/11/20 19:41:54;;;;;;;128.80;81.88;;;231.30;2252.80;;;;;;4900370;29;20522;-81
2021/11/20 19:44:21;;;;;;;135.35;82.25;;;231.30;2252.80;;;;;;4898801;29;20490;-83
2021/11/20 19:46:48;;;;;;;126.45;76.85;;;231.30;2252.80;;;;;;4883305;29;20390;-81
2021/11/20 19:49:14;;;;;;;128.05;78.15;;;231.20;2252.80;;;;;;4900263;29;20415;-81
2021/11/20 19:51:41;;;;;;;119.57;73.88;;;231.10;2252.80;;;;;;4900710;29;20048;-80
2021/11/20 19:54:08;;;;;;;115.68;72.88;;;231.10;2252.80;;;;;;4898443;29;20385;-80
2021/11/20 19:56:35;;;;;;;126.22;79.80;;;231.10;2252.80;;;;;;4882676;29;20431;-79
2021/11/20 19:59:02;;;;;;;120.20;76.35;;;231.00;2252.80;;;;;;4868243;29;20397;-80
2021/11/20 20:01:29;;;;;;;120.20;76.30;;;230.90;2252.80;;;;;;4886158;29;20040;-80
2021/11/20 20:03:57;;;;;;;121.30;75.47;;;230.90;2252.80;;;;;;4907096;29;20410;-80
2021/11/20 20:06:25;;;;;;;129.07;77.00;;;230.90;2252.80;;;;;;4901290;29;20429;-80
2021/11/20 20:08:52;;;;;;;128.07;79.22;;;230.90;2252.80;;;;;;4884380;29;20397;-80
2021/11/20 20:11:18;;;;;;;127.07;79.13;;;230.90;2252.80;;;;;;4884744;29;20469;-79
2021/11/20 20:13:45;;;;;;;131.80;82.07;;;230.80;2252.80;;;;;;4901702;29;20378;-82
2021/11/20 20:16:12;;;;;;;130.35;81.95;;;230.70;2252.80;;;;;;4899813;29;20038;-80
2021/11/20 20:18:40;;;;;;;130.55;79.30;;;230.60;2252.80;;;;;;4886591;29;20080;-81
2021/11/20 20:21:08;;;;;;;138.68;83.93;;;230.60;2252.80;;;;;;4886226;29;20418;-82
2021/11/20 20:23:34;;;;;;;130.15;77.90;;;230.70;2252.80;;;;;;4899656;29;20389;-82
2021/11/20 20:26:04;;;;;;;130.70;77.60;;;179.80;2252.80;;;;;;4884122;29;20350;-81
2021/11/20 20:28:53;;;;;;;146.98;89.22;;;230.50;2252.80;;;;;;4871158;29;20435;-80
2021/11/20 20:31:20;;;;;;;125.72;78.70;;;230.50;2252.80;;;;;;4884761;29;20430;-77
2021/11/20 20:33:47;;;;;;;144.63;88.75;;;230.50;2252.80;;;;;;4899072;29;20410;-80
2021/11/20 20:36:14;;;;;;;171.35;98.93;;;230.40;2252.80;;;;;;4883002;29;20031;-82
2021/11/20 20:38:42;;;;;;;153.50;95.75;;;230.50;2252.80;;;;;;4898321;29;20477;-81
2021/11/20 20:41:09;;;;;;;171.98;98.70;;;230.50;2252.80;;;;;;4882519;29;20363;-80
2021/11/20 20:43:38;;;;;;;162.32;95.95;;;230.40;2252.80;;;;;;4882376;29;20048;-81
2021/11/20 20:46:06;;;;;;;157.05;98.68;;;230.50;2252.80;;;;;;4882827;29;20425;-82
2021/11/20 20:48:34;;;;;;;155.60;95.50;;;230.40;2252.80;;;;;;4883437;29;20446;-80
2021/11/20 20:51:24;;;;;;;180.70;111.68;;;205.70;2252.80;;;;;;4883420;29;20024;-81
2021/11/20 20:53:52;;;;;;;170.57;103.18;;;205.70;2252.80;;;;;;4900822;29;20402;-80
2021/11/20 20:56:19;;;;;;;182.90;111.22;;;205.70;2252.80;;;;;;4884223;29;20528;-79
2021/11/20 21:15:09;;;;;;;236.20;129.15;;;205.50;2252.80;;;;;;4899455;23;20398;-80
2021/11/20 21:17:37;;;;;;;232.23;133.63;;;205.40;2252.80;;;;;;4870319;29;20374;-81
2021/11/20 21:35:24;;;;;;;308.33;156.90;;;205.20;2252.80;;;;;;4895493;29;20081;-82
